createdAt,value
2023-01-17T00:02:34.453Z,4.30
2023-01-17T00:07:55.356Z,4.30
2023-01-17T00:13:01.379Z,4.30
2023-01-17T00:18:03.565Z,4.20
2023-01-17T00:23:26.479Z,4.20
2023-01-17T00:28:29.923Z,4.10
2023-01-17T00:33:32.534Z,4.00
2023-01-17T00:38:37.141Z,3.80
2023-01-17T00:43:58.600Z,3.70
2023-01-17T00:49:19.238Z,3.60
2023-01-17T00:54:40.837Z,3.40
2023-01-17T01:00:01.909Z,3.30
2023-01-17T01:05:23.347Z,3.20
2023-01-17T01:10:44.214Z,3.20
2023-01-17T01:16:05.069Z,3.10
2023-01-17T01:21:26.030Z,3.10
2023-01-17T01:26:46.567Z,3.10
2023-01-17T01:32:07.696Z,3.10
2023-01-17T01:37:09.861Z,3.10
2023-01-17T01:42:16.096Z,3.10
2023-01-17T01:47:38.707Z,3.10
2023-01-17T01:52:44.688Z,3.20
2023-01-17T01:57:52.062Z,3.20
2023-01-17T02:02:56.743Z,3.20
2023-01-17T02:08:11.888Z,3.10
2023-01-17T02:13:17.734Z,3.10
2023-01-17T02:18:22.638Z,3.10
2023-01-17T02:23:49.560Z,3.20
2023-01-17T02:29:19.365Z,3.30
2023-01-17T02:34:35.357Z,3.20
2023-01-17T02:39:43.235Z,3.20
2023-01-17T02:44:45.439Z,3.20
2023-01-17T02:49:47.919Z,3.20
2023-01-17T02:55:08.423Z,3.20
2023-01-17T03:00:27.501Z,3.20
2023-01-17T03:05:33.183Z,3.10
2023-01-17T03:10:36.216Z,3.10
2023-01-17T03:15:40.627Z,3.10
2023-01-17T03:20:43.012Z,3.20
2023-01-17T03:25:45.116Z,3.30
2023-01-17T03:30:47.553Z,3.30
2023-01-17T03:35:49.743Z,3.30
2023-01-17T03:40:52.029Z,3.40
2023-01-17T03:46:05.679Z,3.50
2023-01-17T03:51:07.907Z,3.50
2023-01-17T03:56:10.229Z,3.60
2023-01-17T04:01:12.697Z,3.50
2023-01-17T04:06:14.882Z,3.50
2023-01-17T04:11:17.035Z,3.40
2023-01-17T04:16:20.421Z,3.30
2023-01-17T04:21:23.163Z,3.30
2023-01-17T04:26:25.408Z,3.30
2023-01-17T04:31:27.760Z,3.30
2023-01-17T04:36:30.059Z,3.30
2023-01-17T04:41:32.569Z,3.40
2023-01-17T04:46:34.851Z,3.40
2023-01-17T04:51:37.097Z,3.30
2023-01-17T04:56:39.260Z,3.30
2023-01-17T05:01:41.684Z,3.40
2023-01-17T05:06:44.817Z,3.50
2023-01-17T05:11:47.026Z,3.50
2023-01-17T05:16:49.233Z,3.50
2023-01-17T05:21:51.571Z,3.50
2023-01-17T05:26:54.872Z,3.50
2023-01-17T05:31:57.334Z,3.50
2023-01-17T05:36:59.688Z,3.60
2023-01-17T05:42:01.875Z,3.60
2023-01-17T05:47:04.233Z,3.60
2023-01-17T05:52:06.459Z,3.50
2023-01-17T05:57:08.616Z,3.50
2023-01-17T06:02:10.801Z,3.60
2023-01-17T06:07:13.114Z,3.60
2023-01-17T06:12:15.385Z,3.60
2023-01-17T06:17:17.607Z,3.60
2023-01-17T06:22:20.030Z,3.50
2023-01-17T06:27:22.432Z,3.50
2023-01-17T06:32:24.701Z,3.40
2023-01-17T06:37:26.884Z,3.40
2023-01-17T06:42:28.989Z,3.30
2023-01-17T06:47:31.103Z,3.20
2023-01-17T06:52:33.493Z,3.20
2023-01-17T06:57:35.992Z,3.10
2023-01-17T07:02:38.263Z,3.00
2023-01-17T07:07:40.403Z,3.00
2023-01-17T07:12:42.913Z,3.10
2023-01-17T07:17:45.079Z,3.30
2023-01-17T07:22:47.315Z,3.30
2023-01-17T07:27:52.827Z,3.30
2023-01-17T07:32:55.476Z,3.30
2023-01-17T07:37:57.714Z,3.30
2023-01-17T07:43:02.892Z,3.30
2023-01-17T07:48:06.851Z,3.30
2023-01-17T07:53:09.536Z,3.20
2023-01-17T07:58:11.696Z,3.10
2023-01-17T08:03:16.057Z,3.00
2023-01-17T08:08:18.336Z,2.90
2023-01-17T08:13:22.308Z,2.80
2023-01-17T08:18:24.494Z,2.80
2023-01-17T08:23:26.672Z,2.80
2023-01-17T08:28:28.900Z,2.90
2023-01-17T08:33:32.882Z,2.90
2023-01-17T08:38:35.249Z,2.90
2023-01-17T08:43:37.468Z,2.90
2023-01-17T08:48:39.643Z,2.90
2023-01-17T08:53:42.535Z,3.00
2023-01-17T08:58:45.072Z,3.00
2023-01-17T09:03:49.250Z,3.10
2023-01-17T09:08:52.516Z,3.40
2023-01-17T09:13:54.877Z,3.90
2023-01-17T09:18:58.485Z,4.20
2023-01-17T09:24:00.696Z,4.50
2023-01-17T09:29:03.004Z,4.60
2023-01-17T09:34:08.581Z,4.10
2023-01-17T09:39:11.718Z,3.90
2023-01-17T09:44:43.849Z,3.90
2023-01-17T09:49:47.470Z,4.00
2023-01-17T09:54:51.232Z,4.00
2023-01-17T10:00:20.315Z,4.10
2023-01-17T10:05:28.511Z,4.10
2023-01-17T10:10:47.411Z,4.20
2023-01-17T10:16:00.102Z,4.20
2023-01-17T10:21:09.593Z,4.30
2023-01-17T10:26:17.813Z,4.40
2023-01-17T10:31:25.324Z,4.90
2023-01-17T10:36:34.840Z,5.00
2023-01-17T10:41:46.424Z,5.40
2023-01-17T10:47:05.739Z,6.10
2023-01-17T10:52:25.917Z,6.30
2023-01-17T10:57:28.450Z,6.10
2023-01-17T11:02:36.666Z,5.50
2023-01-17T11:07:40.807Z,5.20
2023-01-17T11:12:47.501Z,5.00
2023-01-17T11:18:01.090Z,4.70
2023-01-17T11:23:16.839Z,4.80
2023-01-17T11:28:30.503Z,4.80
2023-01-17T11:33:32.760Z,4.90
2023-01-17T11:38:36.392Z,4.80
2023-01-17T11:43:57.673Z,4.80
2023-01-17T11:49:01.559Z,4.70
2023-01-17T11:54:23.950Z,4.70
2023-01-17T11:59:47.742Z,4.70
2023-01-17T12:05:24.336Z,4.50
2023-01-17T12:10:59.020Z,4.50
2023-01-17T12:16:37.797Z,4.40
2023-01-17T12:22:06.037Z,4.30
2023-01-17T12:27:35.173Z,4.20
2023-01-17T12:32:46.119Z,4.20
2023-01-17T12:38:04.439Z,4.30
2023-01-17T12:43:21.650Z,4.30
2023-01-17T12:48:28.647Z,4.30
2023-01-17T12:53:49.220Z,4.40
2023-01-17T12:59:13.154Z,4.40
2023-01-17T13:04:57.289Z,4.50
2023-01-17T13:10:24.279Z,4.60
2023-01-17T13:15:35.416Z,4.60
2023-01-17T13:21:04.979Z,4.50
2023-01-17T13:26:21.312Z,4.50
2023-01-17T13:31:29.760Z,4.40
2023-01-17T13:37:09.003Z,4.30
2023-01-17T13:42:23.105Z,4.40
2023-01-17T13:47:28.096Z,4.30
2023-01-17T13:52:34.215Z,4.40
2023-01-17T13:57:46.717Z,4.40
2023-01-17T14:02:50.729Z,4.30
2023-01-17T14:08:14.113Z,4.30
2023-01-17T14:13:44.435Z,4.40
2023-01-17T14:18:46.690Z,4.40
2023-01-17T14:24:06.457Z,4.40
2023-01-17T14:29:42.857Z,4.30
2023-01-17T14:34:47.215Z,4.40
2023-01-17T14:39:50.724Z,4.30
2023-01-17T14:44:57.011Z,4.20
2023-01-17T14:50:13.479Z,4.10
2023-01-17T14:55:20.395Z,4.00
2023-01-17T15:00:25.388Z,4.00
2023-01-17T15:05:30.328Z,4.00
2023-01-17T15:10:33.674Z,4.10
2023-01-17T15:15:39.625Z,4.20
2023-01-17T15:20:47.344Z,4.40
2023-01-17T15:25:51.254Z,4.50
2023-01-17T15:31:05.707Z,4.60
2023-01-17T15:36:32.440Z,4.70
2023-01-17T15:41:37.595Z,4.80
2023-01-17T15:46:44.970Z,4.90
2023-01-17T15:51:56.461Z,4.90
2023-01-17T15:57:29.390Z,4.90
2023-01-17T16:02:32.997Z,4.80
2023-01-17T16:07:36.914Z,4.80
2023-01-17T16:12:39.159Z,4.80
2023-01-17T16:17:45.558Z,4.80
2023-01-17T16:22:48.420Z,4.90
2023-01-17T16:27:52.376Z,4.90
2023-01-17T16:32:56.606Z,4.90
2023-01-17T16:38:04.447Z,4.80
2023-01-17T16:43:07.030Z,4.70
2023-01-17T16:48:11.484Z,4.60
2023-01-17T16:53:14.637Z,4.60
2023-01-17T16:58:17.170Z,4.60
2023-01-17T17:03:20.950Z,4.60
2023-01-17T17:08:24.957Z,4.50
2023-01-17T17:13:27.146Z,4.50
2023-01-17T17:18:29.921Z,4.50
2023-01-17T17:23:32.178Z,4.50
2023-01-17T17:28:36.360Z,4.50
2023-01-17T17:33:38.820Z,4.50
2023-01-17T17:38:50.855Z,4.30
2023-01-17T17:43:53.858Z,4.30
2023-01-17T17:48:57.553Z,4.30
2023-01-17T17:54:07.967Z,4.30
2023-01-17T17:59:10.226Z,4.30
2023-01-17T18:04:15.224Z,4.30
2023-01-17T18:09:17.731Z,4.10
2023-01-17T18:14:23.911Z,4.10
2023-01-17T18:19:26.881Z,4.10
2023-01-17T18:24:29.180Z,4.10
2023-01-17T18:29:31.358Z,4.10
2023-01-17T18:34:35.681Z,4.10
2023-01-17T18:39:37.851Z,4.10
2023-01-17T18:44:40.056Z,4.00
2023-01-17T18:49:42.894Z,4.00
2023-01-17T18:54:45.704Z,3.90
2023-01-17T18:59:47.869Z,3.80
2023-01-17T19:04:50.116Z,3.80
2023-01-17T19:09:52.335Z,3.80
2023-01-17T19:14:54.516Z,3.80
2023-01-17T19:19:57.217Z,3.90
2023-01-17T19:24:59.377Z,3.90
2023-01-17T19:30:01.612Z,3.90
2023-01-17T19:35:04.046Z,3.90
2023-01-17T19:40:08.379Z,3.90
2023-01-17T19:45:12.664Z,3.80
2023-01-17T19:50:15.068Z,3.80
2023-01-17T19:55:18.259Z,3.70
2023-01-17T20:00:29.924Z,3.90
2023-01-17T20:05:41.093Z,3.90
2023-01-17T20:10:43.328Z,3.90
2023-01-17T20:15:45.472Z,4.10
2023-01-17T20:20:56.854Z,4.20
2023-01-17T20:26:00.704Z,4.20
2023-01-17T20:31:07.470Z,4.20
2023-01-17T20:36:12.797Z,4.10
2023-01-17T20:41:28.686Z,4.00
2023-01-17T20:46:37.880Z,4.10
2023-01-17T20:51:44.328Z,4.00
2023-01-17T20:56:47.808Z,3.80
2023-01-17T21:01:50.706Z,3.80
2023-01-17T21:06:53.395Z,3.90
2023-01-17T21:12:01.179Z,3.90
2023-01-17T21:17:03.753Z,3.90
2023-01-17T21:22:06.726Z,3.90
2023-01-17T21:27:09.207Z,3.90
2023-01-17T21:32:11.316Z,3.90
2023-01-17T21:37:13.569Z,4.10
2023-01-17T21:42:15.723Z,4.00
2023-01-17T21:47:18.089Z,4.20
2023-01-17T21:52:20.366Z,4.30
2023-01-17T21:57:42.100Z,4.40
2023-01-17T22:03:09.492Z,4.40
2023-01-17T22:08:11.595Z,4.60
2023-01-17T22:13:22.583Z,4.50
2023-01-17T22:18:24.683Z,4.60
2023-01-17T22:23:26.969Z,4.50
2023-01-17T22:28:31.980Z,4.40
2023-01-17T22:33:34.365Z,4.30
2023-01-17T22:38:37.680Z,4.40
2023-01-17T22:43:42.302Z,4.40
2023-01-17T22:48:45.208Z,4.30
2023-01-17T22:53:52.672Z,4.20
2023-01-17T22:58:55.047Z,4.00
2023-01-17T23:04:02.716Z,4.00
2023-01-17T23:09:11.234Z,4.00
2023-01-17T23:14:17.279Z,4.10
2023-01-17T23:19:22.246Z,4.50
2023-01-17T23:24:24.644Z,4.80
2023-01-17T23:29:26.876Z,5.00
2023-01-17T23:34:29.125Z,5.20
2023-01-17T23:39:31.370Z,5.20
2023-01-17T23:44:33.468Z,5.20
2023-01-17T23:49:35.619Z,5.10
2023-01-17T23:54:38.724Z,5.20
2023-01-17T23:59:41.004Z,5.20
